Time;durP1;ratioP1;P1;durP2;ratioP2;P2;SDS_P1;SDS_P2;PMS_P1;PMS_P2;Temp;Humidity;BMP_temperature;BMP_pressure;BME280_temperature;BME280_humidity;BME280_pressure;Samples;Min_cycle;Max_cycle;Signal;HPM_P1;HPM_P2
2021/12/03 00:01:08;;;;;;;10.13;1.92;;;2.90;99.90;;;;;;5105483;28;20128;-72
2021/12/03 00:03:35;;;;;;;10.90;2.75;;;2.90;99.90;;;;;;5110736;28;20413;-73
2021/12/03 00:06:01;;;;;;;7.68;2.20;;;2.90;99.90;;;;;;5092907;28;20067;-73
2021/12/03 00:08:27;;;;;;;12.45;2.47;;;2.90;99.90;;;;;;5107847;28;20039;-72
2021/12/03 00:10:58;;;;;;;14.15;2.40;;;2.90;99.90;;;;;;5112423;28;20023;-72
2021/12/03 00:13:25;;;;;;;8.80;3.05;;;2.90;99.90;;;;;;5112481;28;20519;-72
2021/12/03 00:15:53;;;;;;;11.25;2.55;;;2.90;99.90;;;;;;5099602;28;20026;-72
2021/12/03 00:18:19;;;;;;;11.82;3.17;;;2.90;99.90;;;;;;5104422;28;20058;-72
2021/12/03 00:20:45;;;;;;;11.63;3.17;;;2.90;99.90;;;;;;5110751;28;20508;-72
2021/12/03 00:23:10;;;;;;;10.50;2.97;;;2.90;99.90;;;;;;5111810;28;20020;-73
2021/12/03 00:25:36;;;;;;;10.63;3.10;;;2.90;99.90;;;;;;5097777;28;20028;-73
2021/12/03 00:28:03;;;;;;;8.32;3.08;;;2.90;99.90;;;;;;5109910;28;20027;-72
2021/12/03 00:30:29;;;;;;;12.38;2.95;;;2.90;99.90;;;;;;5112279;28;20027;-73
2021/12/03 00:32:55;;;;;;;9.23;2.90;;;2.90;99.90;;;;;;5100552;28;20024;-72
2021/12/03 00:35:21;;;;;;;6.40;2.70;;;3.00;99.90;;;;;;5091650;28;20376;-73
2021/12/03 00:37:48;;;;;;;13.60;3.25;;;3.00;99.90;;;;;;5107009;28;20106;-72
2021/12/03 00:40:20;;;;;;;13.63;3.03;;;3.00;99.90;;;;;;5098367;28;20187;-72
2021/12/03 00:42:46;;;;;;;14.95;3.00;;;3.00;99.90;;;;;;5101247;28;20383;-72
2021/12/03 00:45:12;;;;;;;9.23;2.75;;;3.00;99.90;;;;;;5104329;28;20027;-72
2021/12/03 00:47:40;;;;;;;8.10;3.03;;;3.00;99.90;;;;;;5094276;28;20038;-73
2021/12/03 00:50:09;;;;;;;11.27;3.00;;;3.10;99.90;;;;;;5096776;28;20521;-73
2021/12/03 00:52:36;;;;;;;11.65;2.80;;;3.00;99.90;;;;;;5110308;28;20031;-73
2021/12/03 00:55:04;;;;;;;11.82;2.83;;;3.00;99.90;;;;;;5102135;28;20065;-73
2021/12/03 00:57:29;;;;;;;10.68;2.80;;;3.00;99.90;;;;;;5104298;28;20493;-73
2021/12/03 00:59:55;;;;;;;13.35;2.60;;;3.00;99.90;;;;;;5108167;28;20044;-73
2021/12/03 01:02:20;;;;;;;17.77;3.33;;;3.10;99.90;;;;;;5099941;28;20023;-73
2021/12/03 01:04:48;;;;;;;9.38;2.55;;;3.00;99.90;;;;;;5109470;28;20024;-73
2021/12/03 01:07:15;;;;;;;14.77;2.80;;;3.00;99.90;;;;;;5101896;28;20130;-74
2021/12/03 01:09:41;;;;;;;7.03;2.25;;;3.10;99.90;;;;;;5093246;28;20020;-73
2021/12/03 01:12:07;;;;;;;8.35;2.38;;;3.00;99.90;;;;;;5111386;28;20031;-73
2021/12/03 01:14:33;;;;;;;12.35;2.47;;;3.10;99.90;;;;;;5107525;28;20023;-73
2021/12/03 01:16:59;;;;;;;5.32;2.30;;;3.10;99.90;;;;;;5102120;28;20066;-72
2021/12/03 01:19:24;;;;;;;8.50;1.90;;;3.10;99.90;;;;;;5096617;28;20424;-72
2021/12/03 01:21:50;;;;;;;5.32;1.73;;;3.10;99.90;;;;;;5108627;28;20390;-73
2021/12/03 01:24:17;;;;;;;11.55;2.15;;;3.10;99.90;;;;;;5107491;28;20024;-73
2021/12/03 01:26:45;;;;;;;6.85;1.67;;;3.10;99.90;;;;;;5091136;28;20060;-72
2021/12/03 01:29:10;;;;;;;9.93;1.77;;;3.20;99.90;;;;;;5108506;28;20028;-72
2021/12/03 01:31:36;;;;;;;9.35;1.88;;;3.20;99.90;;;;;;5090958;28;20320;-73
2021/12/03 01:34:02;;;;;;;9.48;1.60;;;3.20;99.90;;;;;;5090600;28;20025;-73
2021/12/03 01:36:28;;;;;;;8.65;1.88;;;3.20;99.90;;;;;;5093471;28;20098;-72
2021/12/03 01:38:54;;;;;;;12.88;1.85;;;3.20;99.90;;;;;;5090811;28;20154;-72
2021/12/03 01:41:20;;;;;;;8.80;1.73;;;3.20;99.90;;;;;;5097219;28;20439;-73
2021/12/03 01:43:46;;;;;;;8.00;1.88;;;3.20;99.90;;;;;;5097302;28;20024;-73
2021/12/03 01:46:13;;;;;;;8.30;1.95;;;3.20;99.90;;;;;;5091470;28;20071;-72
2021/12/03 01:48:40;;;;;;;7.55;1.50;;;3.30;99.90;;;;;;5090795;28;20375;-72
2021/12/03 01:51:06;;;;;;;5.88;1.20;;;3.30;99.90;;;;;;5096944;28;20070;-72
2021/12/03 01:53:36;;;;;;;12.88;1.50;;;3.30;99.90;;;;;;5100850;28;20059;-72
2021/12/03 01:56:10;;;;;;;6.53;1.20;;;3.40;99.90;;;;;;5092989;28;20024;-72
2021/12/03 01:58:37;;;;;;;12.63;1.80;;;3.40;99.90;;;;;;5090230;28;20039;-73
2021/12/03 02:01:07;;;;;;;4.03;1.00;;;3.40;99.90;;;;;;5090309;28;20312;-72
2021/12/03 02:03:35;;;;;;;7.38;1.45;;;3.40;99.90;;;;;;5090035;28;20550;-72
2021/12/03 02:06:03;;;;;;;7.22;1.55;;;3.40;99.90;;;;;;5090060;28;20399;-72
2021/12/03 02:08:28;;;;;;;8.65;1.40;;;3.50;99.90;;;;;;5090047;28;20032;-72
2021/12/03 02:10:54;;;;;;;11.20;1.63;;;3.50;99.90;;;;;;5093507;28;20486;-72
2021/12/03 02:13:20;;;;;;;8.38;1.70;;;3.50;99.90;;;;;;5094235;28;20016;-72
2021/12/03 02:15:46;;;;;;;13.10;2.00;;;3.50;99.90;;;;;;5094232;28;20032;-72
2021/12/03 02:18:14;;;;;;;6.47;1.92;;;3.50;99.90;;;;;;5088975;28;20107;-72
2021/12/03 02:20:48;;;;;;;13.23;1.67;;;3.50;99.90;;;;;;5082545;28;20051;-72
2021/12/03 02:23:15;;;;;;;6.80;1.80;;;3.50;99.90;;;;;;5093932;28;20047;-73
2021/12/03 02:25:42;;;;;;;9.05;1.67;;;3.50;99.90;;;;;;5092700;28;20024;-72
2021/12/03 02:28:08;;;;;;;10.07;2.22;;;3.50;99.90;;;;;;5094155;28;20020;-72
2021/12/03 02:30:35;;;;;;;11.93;1.77;;;3.50;99.90;;;;;;5093448;28;20135;-73
2021/12/03 02:33:00;;;;;;;10.23;1.80;;;3.60;99.90;;;;;;5094061;28;20601;-72
2021/12/03 02:35:26;;;;;;;5.50;1.60;;;3.60;99.90;;;;;;5105003;28;20098;-72
2021/12/03 02:37:52;;;;;;;6.13;1.80;;;3.60;99.90;;;;;;5114243;28;20046;-72
2021/12/03 02:40:19;;;;;;;9.70;1.55;;;3.60;99.90;;;;;;5114854;28;20031;-72
2021/12/03 02:42:45;;;;;;;10.95;1.80;;;3.60;99.90;;;;;;5112455;28;20030;-73
2021/12/03 02:45:13;;;;;;;12.68;1.85;;;3.60;99.90;;;;;;5113625;28;20027;-72
2021/12/03 02:47:39;;;;;;;9.38;2.20;;;3.60;99.90;;;;;;5113806;28;20019;-72
2021/12/03 02:50:06;;;;;;;8.95;2.00;;;3.70;99.90;;;;;;5114011;28;20020;-72
2021/12/03 02:52:33;;;;;;;14.35;2.20;;;3.70;99.90;;;;;;5105585;27;20044;-73
2021/12/03 02:54:58;;;;;;;8.18;1.80;;;3.70;99.90;;;;;;5097490;28;20470;-72
2021/12/03 02:57:24;;;;;;;10.43;1.88;;;3.70;99.90;;;;;;5114039;28;20103;-72
2021/12/03 02:59:50;;;;;;;4.28;1.58;;;3.70;99.90;;;;;;5080186;28;20073;-73
2021/12/03 03:02:16;;;;;;;10.52;2.50;;;3.70;99.90;;;;;;5107773;28;20031;-72
2021/12/03 03:04:41;;;;;;;6.15;1.60;;;3.70;99.90;;;;;;5093713;28;20487;-72
2021/12/03 03:07:07;;;;;;;7.95;1.80;;;3.70;99.90;;;;;;5104400;28;20031;-72
2021/12/03 03:09:32;;;;;;;4.75;1.33;;;3.70;99.90;;;;;;5107608;28;20429;-72
2021/12/03 03:11:59;;;;;;;7.78;1.45;;;3.70;99.90;;;;;;5102967;28;20534;-73
2021/12/03 03:14:25;;;;;;;9.43;1.50;;;3.70;99.90;;;;;;5113435;28;20032;-75
2021/12/03 03:16:51;;;;;;;6.13;1.02;;;3.70;99.90;;;;;;5108962;28;20031;-73
2021/12/03 03:19:21;;;;;;;6.90;1.00;;;3.70;99.90;;;;;;5113519;28;20028;-73
2021/12/03 03:21:47;;;;;;;5.85;1.20;;;3.80;99.90;;;;;;5093291;28;20031;-74
2021/12/03 03:24:14;;;;;;;8.60;1.13;;;3.80;99.90;;;;;;5093304;28;20039;-74
2021/12/03 03:26:42;;;;;;;6.13;1.27;;;3.90;99.90;;;;;;5105533;28;20491;-74
2021/12/03 03:29:12;;;;;;;10.45;0.98;;;3.90;99.90;;;;;;5111775;28;20385;-73
2021/12/03 03:31:39;;;;;;;9.20;1.58;;;4.00;99.90;;;;;;5113162;28;20035;-73
2021/12/03 03:34:06;;;;;;;12.73;1.10;;;4.00;99.90;;;;;;5095297;27;20320;-73
2021/12/03 03:36:33;;;;;;;11.93;1.38;;;4.00;99.90;;;;;;5092774;28;20028;-74
2021/12/03 03:38:59;;;;;;;8.75;1.35;;;4.10;99.90;;;;;;5092964;28;20017;-73
2021/12/03 03:41:25;;;;;;;9.32;1.55;;;4.10;99.90;;;;;;5092877;28;20032;-73
2021/12/03 03:43:50;;;;;;;7.85;1.60;;;4.10;99.90;;;;;;5094731;28;20060;-74
2021/12/03 03:46:16;;;;;;;12.50;2.10;;;4.00;99.90;;;;;;5083706;28;20043;-74
2021/12/03 03:48:42;;;;;;;12.15;2.42;;;4.10;99.90;;;;;;5093005;28;20032;-74
2021/12/03 03:51:08;;;;;;;16.38;2.80;;;4.10;99.90;;;;;;5111586;28;20062;-74
2021/12/03 03:53:33;;;;;;;6.95;1.70;;;4.10;99.90;;;;;;5110190;28;20040;-74
2021/12/03 03:55:59;;;;;;;7.68;1.95;;;4.10;99.90;;;;;;5098599;28;20103;-74
2021/12/03 03:58:24;;;;;;;9.13;1.95;;;4.20;99.90;;;;;;5112089;28;20032;-74
2021/12/03 04:00:50;;;;;;;12.00;2.22;;;4.20;99.90;;;;;;5112715;28;20035;-72
2021/12/03 04:03:16;;;;;;;13.20;2.65;;;4.20;99.90;;;;;;5110256;28;20390;-74
2021/12/03 04:05:42;;;;;;;15.93;3.47;;;4.20;99.90;;;;;;5110427;28;20027;-74
2021/12/03 04:08:08;;;;;;;15.90;3.95;;;4.20;99.90;;;;;;5112306;28;20024;-72
2021/12/03 04:10:34;;;;;;;14.43;4.28;;;4.30;99.90;;;;;;5112171;28;20035;-74
2021/12/03 04:13:00;;;;;;;13.60;3.58;;;4.30;99.90;;;;;;5111874;28;20019;-73
2021/12/03 04:15:26;;;;;;;14.55;3.17;;;4.30;99.90;;;;;;5096815;28;20051;-73
2021/12/03 04:17:51;;;;;;;14.82;2.97;;;4.30;99.90;;;;;;5095749;28;20024;-73
2021/12/03 04:20:19;;;;;;;13.73;3.15;;;4.30;99.90;;;;;;5095602;28;20445;-73
2021/12/03 04:22:45;;;;;;;9.18;2.33;;;4.40;99.90;;;;;;5091662;28;20032;-73
2021/12/03 04:25:17;;;;;;;17.08;3.10;;;4.40;99.90;;;;;;5106015;28;20493;-73
2021/12/03 04:27:43;;;;;;;11.23;2.20;;;4.40;99.90;;;;;;5112271;28;20394;-73
2021/12/03 04:30:14;;;;;;;14.88;3.08;;;4.40;99.90;;;;;;5107678;27;20042;-74
2021/12/03 04:32:40;;;;;;;18.13;2.78;;;4.40;99.90;;;;;;5103027;28;20020;-74
2021/12/03 04:35:07;;;;;;;13.50;2.45;;;4.40;99.90;;;;;;5091545;28;20061;-73
2021/12/03 04:37:32;;;;;;;12.20;2.17;;;4.40;99.90;;;;;;5091626;28;20028;-73
2021/12/03 04:39:58;;;;;;;10.25;2.30;;;4.40;99.90;;;;;;5091295;28;20109;-73
2021/12/03 04:42:23;;;;;;;7.72;2.38;;;4.40;99.90;;;;;;5091845;28;20360;-73
2021/12/03 04:44:49;;;;;;;11.30;2.65;;;4.40;99.90;;;;;;5092585;28;20074;-73
2021/12/03 04:47:15;;;;;;;12.35;2.70;;;4.40;99.90;;;;;;5106871;28;20066;-74
2021/12/03 04:49:40;;;;;;;16.20;3.10;;;4.40;99.90;;;;;;5094436;28;20032;-73
2021/12/03 04:52:06;;;;;;;14.57;3.08;;;4.40;99.90;;;;;;5111907;28;20039;-73
2021/12/03 04:54:32;;;;;;;20.67;3.20;;;4.40;99.90;;;;;;5110714;28;20451;-73
2021/12/03 04:56:58;;;;;;;15.00;3.20;;;4.50;99.90;;;;;;5093212;28;20031;-74
2021/12/03 04:59:25;;;;;;;15.48;3.70;;;4.40;99.90;;;;;;5091277;28;20480;-73
2021/12/03 05:01:54;;;;;;;14.50;3.13;;;4.50;99.90;;;;;;5091199;28;20036;-73
2021/12/03 05:04:20;;;;;;;12.65;3.53;;;4.50;99.90;;;;;;5079631;28;20430;-74
2021/12/03 05:07:04;;;;;;;12.80;3.30;;;4.50;99.90;;;;;;5100935;28;20059;-74
2021/12/03 05:09:30;;;;;;;20.23;4.43;;;4.50;99.90;;;;;;5100747;28;20031;-73
2021/12/03 05:11:55;;;;;;;13.00;4.13;;;4.50;99.90;;;;;;5107392;28;20031;-73
2021/12/03 05:14:21;;;;;;;11.00;4.10;;;4.50;99.90;;;;;;5108383;28;20031;-74
2021/12/03 05:16:48;;;;;;;20.25;5.55;;;4.50;99.90;;;;;;5110716;28;20027;-73
2021/12/03 05:19:15;;;;;;;16.80;4.72;;;4.60;99.90;;;;;;5096608;28;20412;-73
2021/12/03 05:21:41;;;;;;;22.42;4.82;;;4.60;99.90;;;;;;5091432;28;20144;-73
2021/12/03 05:24:07;;;;;;;19.35;4.18;;;4.60;99.90;;;;;;5097482;28;20547;-73
2021/12/03 05:26:33;;;;;;;18.40;4.47;;;4.50;99.90;;;;;;5109740;28;20046;-74
2021/12/03 05:28:58;;;;;;;18.23;3.88;;;4.60;99.90;;;;;;5093903;28;20497;-74
2021/12/03 05:31:24;;;;;;;19.70;3.75;;;4.60;99.90;;;;;;5100271;28;20028;-74
2021/12/03 05:33:49;;;;;;;13.98;3.10;;;4.60;99.90;;;;;;5087172;28;20012;-74
2021/12/03 05:36:15;;;;;;;18.27;3.00;;;4.60;99.90;;;;;;5085623;28;20376;-74
2021/12/03 05:38:41;;;;;;;19.45;3.88;;;4.60;99.90;;;;;;5081895;28;20016;-74
2021/12/03 05:41:06;;;;;;;25.30;4.43;;;4.60;99.90;;;;;;5084442;28;20078;-74
2021/12/03 05:43:32;;;;;;;21.85;4.28;;;4.70;99.90;;;;;;5078444;28;20017;-74
2021/12/03 05:45:58;;;;;;;13.35;4.30;;;4.70;99.90;;;;;;5075895;28;20016;-74
2021/12/03 05:48:23;;;;;;;20.67;4.00;;;4.70;99.90;;;;;;5083668;28;20024;-74
2021/12/03 05:50:50;;;;;;;12.73;3.75;;;4.70;99.90;;;;;;5090605;28;20417;-75
2021/12/03 05:53:16;;;;;;;28.40;5.03;;;4.80;99.90;;;;;;5090722;28;20514;-74
2021/12/03 05:55:42;;;;;;;26.13;5.20;;;4.70;99.90;;;;;;5091079;28;20035;-74
2021/12/03 05:58:08;;;;;;;19.75;4.82;;;4.70;99.90;;;;;;5090481;28;20053;-74
2021/12/03 06:00:40;;;;;;;19.20;4.90;;;4.80;99.90;;;;;;5075889;28;20096;-73
2021/12/03 06:03:06;;;;;;;20.95;4.80;;;4.80;99.90;;;;;;5080644;28;20020;-74
2021/12/03 06:05:33;;;;;;;20.27;4.93;;;4.80;99.90;;;;;;5082076;28;20056;-75
2021/12/03 06:07:59;;;;;;;21.10;4.45;;;4.80;99.90;;;;;;5075494;28;20068;-73
2021/12/03 06:10:26;;;;;;;22.92;4.18;;;4.80;99.90;;;;;;5090723;28;20489;-73
2021/12/03 06:12:52;;;;;;;22.33;3.90;;;4.80;99.90;;;;;;5091397;28;20024;-73
2021/12/03 06:15:19;;;;;;;15.35;4.15;;;4.80;99.90;;;;;;5094508;28;20020;-73
2021/12/03 06:17:45;;;;;;;20.02;4.30;;;4.80;99.90;;;;;;5091866;28;20020;-72
2021/12/03 06:20:11;;;;;;;19.60;3.80;;;4.90;99.90;;;;;;5085034;28;20051;-72
2021/12/03 06:22:38;;;;;;;15.50;3.22;;;4.90;99.90;;;;;;5086954;28;20028;-73
2021/12/03 06:25:05;;;;;;;16.67;3.60;;;4.90;99.90;;;;;;5088119;28;20073;-73
2021/12/03 06:27:31;;;;;;;19.05;4.13;;;4.90;99.90;;;;;;5086699;28;20025;-74
2021/12/03 06:29:57;;;;;;;20.23;4.30;;;4.90;99.90;;;;;;5090758;28;20070;-74
2021/12/03 06:32:23;;;;;;;23.55;3.85;;;4.90;99.90;;;;;;5082824;28;20043;-73
2021/12/03 06:34:49;;;;;;;18.98;4.15;;;4.90;99.90;;;;;;5088487;28;20016;-74
2021/12/03 06:37:15;;;;;;;18.27;4.10;;;4.80;99.90;;;;;;5073824;28;20051;-74
2021/12/03 06:39:40;;;;;;;20.25;4.43;;;4.80;99.90;;;;;;5069565;28;20047;-74
2021/12/03 06:42:06;;;;;;;14.20;4.38;;;4.80;99.90;;;;;;5075842;28;20032;-74
2021/12/03 06:44:32;;;;;;;17.55;4.22;;;4.80;99.90;;;;;;5095933;28;20035;-74
2021/12/03 06:47:00;;;;;;;16.33;4.60;;;4.80;99.90;;;;;;5092578;28;20081;-74
2021/12/03 06:49:28;;;;;;;23.95;5.07;;;4.70;99.90;;;;;;5093170;28;20405;-74
2021/12/03 06:52:00;;;;;;;18.10;4.05;;;4.70;99.90;;;;;;5093800;28;20024;-74
2021/12/03 06:54:29;;;;;;;16.20;4.43;;;4.70;99.90;;;;;;5093279;28;20023;-74
2021/12/03 06:56:55;;;;;;;12.68;3.72;;;4.70;99.90;;;;;;5095553;28;20039;-74
2021/12/03 06:59:22;;;;;;;22.70;4.47;;;4.70;99.90;;;;;;5096648;28;20024;-74
2021/12/03 07:01:48;;;;;;;21.10;4.50;;;4.70;99.90;;;;;;5098678;28;20609;-73
2021/12/03 07:04:14;;;;;;;20.23;4.45;;;4.60;99.90;;;;;;5097665;28;20115;-74
2021/12/03 07:06:40;;;;;;;20.17;4.22;;;4.60;99.90;;;;;;5096467;28;20496;-74
2021/12/03 07:09:06;;;;;;;19.33;4.40;;;4.60;99.90;;;;;;5097890;28;20030;-73
2021/12/03 07:11:32;;;;;;;19.25;4.60;;;4.60;99.90;;;;;;5087937;28;20040;-74
2021/12/03 07:13:58;;;;;;;21.45;4.45;;;4.60;99.90;;;;;;5079972;28;20032;-74
2021/12/03 07:16:24;;;;;;;19.77;4.70;;;4.60;99.90;;;;;;5080376;28;20035;-73
2021/12/03 07:18:50;;;;;;;19.08;4.57;;;4.60;99.90;;;;;;5080542;28;20021;-73
2021/12/03 07:21:15;;;;;;;18.23;5.00;;;4.50;99.90;;;;;;5080697;28;20098;-75
2021/12/03 07:23:41;;;;;;;18.50;4.95;;;4.50;99.90;;;;;;5077474;28;20013;-73
2021/12/03 07:26:07;;;;;;;21.10;4.85;;;4.50;99.90;;;;;;5081226;28;20104;-74
2021/12/03 07:28:33;;;;;;;19.83;5.10;;;4.50;99.90;;;;;;5078554;28;20483;-74
2021/12/03 07:30:59;;;;;;;18.20;4.60;;;4.50;99.90;;;;;;5078243;28;20023;-73
2021/12/03 07:33:30;;;;;;;15.32;4.78;;;4.40;99.90;;;;;;5078888;28;20143;-74
2021/12/03 07:35:56;;;;;;;19.02;5.40;;;4.40;99.90;;;;;;5099338;28;20020;-74
2021/12/03 07:38:22;;;;;;;21.40;4.60;;;4.40;99.90;;;;;;5092325;28;20499;-75
2021/12/03 07:40:48;;;;;;;23.02;4.95;;;4.40;99.90;;;;;;5077961;28;20077;-74
2021/12/03 07:43:16;;;;;;;19.15;4.50;;;4.40;99.90;;;;;;5089603;28;20111;-74
2021/12/03 07:45:46;;;;;;;17.23;4.63;;;4.40;99.90;;;;;;5087950;28;20024;-74
2021/12/03 07:48:12;;;;;;;18.88;4.45;;;4.40;99.90;;;;;;5089624;28;20451;-74
2021/12/03 07:50:39;;;;;;;15.80;4.22;;;4.40;99.90;;;;;;5083615;28;20074;-74
2021/12/03 07:53:06;;;;;;;16.33;4.65;;;4.40;99.90;;;;;;5093883;28;20004;-76
2021/12/03 07:55:32;;;;;;;19.08;4.05;;;4.40;99.90;;;;;;5092703;28;20024;-74
2021/12/03 07:57:57;;;;;;;12.50;4.25;;;4.40;99.90;;;;;;5092400;28;20032;-74
2021/12/03 08:00:23;;;;;;;11.43;3.75;;;4.40;99.90;;;;;;5091425;28;20023;-74
2021/12/03 08:02:49;;;;;;;15.98;4.63;;;4.40;99.90;;;;;;5083529;28;20021;-74
2021/12/03 08:05:14;;;;;;;16.58;4.28;;;4.40;99.90;;;;;;5077241;28;20021;-74
2021/12/03 08:07:45;;;;;;;16.92;4.40;;;4.40;99.90;;;;;;5083028;28;20355;-74
2021/12/03 08:10:10;;;;;;;15.63;4.78;;;4.40;99.90;;;;;;5080674;28;20039;-74
2021/12/03 08:12:39;;;;;;;23.58;4.47;;;4.40;99.90;;;;;;5093605;28;20020;-74
2021/12/03 08:15:05;;;;;;;21.05;4.80;;;4.40;99.90;;;;;;5093620;28;20022;-75
2021/12/03 08:17:30;;;;;;;18.13;4.70;;;4.40;99.90;;;;;;5088191;28;20391;-74
2021/12/03 08:19:56;;;;;;;16.98;4.38;;;4.40;99.90;;;;;;5087347;28;20040;-74
2021/12/03 08:22:22;;;;;;;16.10;4.60;;;4.40;99.90;;;;;;5092757;28;20024;-75
2021/12/03 08:24:47;;;;;;;16.25;3.92;;;4.40;99.90;;;;;;5080334;28;20027;-75
2021/12/03 08:27:13;;;;;;;12.82;4.60;;;4.40;99.90;;;;;;5083840;28;20017;-74
2021/12/03 08:29:38;;;;;;;11.25;3.30;;;4.40;99.90;;;;;;5090144;28;20020;-74
2021/12/03 08:32:04;;;;;;;17.17;3.72;;;4.40;99.90;;;;;;5088662;28;20103;-76
2021/12/03 08:34:30;;;;;;;9.90;2.35;;;4.40;99.90;;;;;;5107222;27;20467;-74
2021/12/03 08:36:56;;;;;;;10.05;2.90;;;4.40;99.90;;;;;;5084968;28;20099;-75
2021/12/03 08:39:21;;;;;;;8.27;2.28;;;4.40;99.90;;;;;;5087800;28;20016;-74
2021/12/03 08:41:48;;;;;;;8.57;2.38;;;4.40;99.90;;;;;;5086147;28;20036;-75
2021/12/03 08:44:14;;;;;;;12.32;2.40;;;4.50;99.90;;;;;;5098822;28;20024;-74
2021/12/03 08:46:40;;;;;;;10.05;2.45;;;4.50;99.90;;;;;;5096740;28;20047;-75
2021/12/03 08:49:15;;;;;;;12.48;2.20;;;4.60;99.90;;;;;;5096302;28;20023;-75
2021/12/03 08:56:54;;;;;;;8.38;2.75;;;4.60;99.90;;;;;;5077886;28;20418;-74
2021/12/03 08:59:20;;;;;;;12.45;2.42;;;4.70;99.90;;;;;;5075047;28;20028;-75
2021/12/03 09:01:45;;;;;;;9.05;2.13;;;4.70;99.90;;;;;;5076369;28;20056;-75
2021/12/03 09:04:13;;;;;;;11.70;2.25;;;4.70;99.90;;;;;;5107093;28;20127;-75
2021/12/03 09:06:39;;;;;;;10.07;2.08;;;4.80;99.90;;;;;;5096413;28;20020;-74
2021/12/03 09:09:08;;;;;;;9.98;2.67;;;4.80;99.90;;;;;;5095425;28;20106;-75
2021/12/03 09:11:37;;;;;;;9.93;2.50;;;4.80;99.90;;;;;;5095191;28;20046;-74
2021/12/03 09:14:13;;;;;;;9.25;2.35;;;4.80;99.90;;;;;;5096933;28;20039;-75
2021/12/03 09:16:38;;;;;;;14.93;2.55;;;4.90;99.90;;;;;;5098251;28;20070;-74
2021/12/03 09:19:10;;;;;;;11.55;2.28;;;4.90;99.90;;;;;;5095964;28;20345;-74
2021/12/03 09:21:36;;;;;;;8.48;2.40;;;4.90;99.90;;;;;;5092263;28;20044;-74
2021/12/03 09:26:29;;;;;;;10.18;2.53;;;4.90;99.90;;;;;;5092359;28;20111;-74
2021/12/03 09:29:01;;;;;;;11.20;2.55;;;5.00;99.90;;;;;;5091999;28;20062;-74
2021/12/03 09:31:27;;;;;;;10.50;2.50;;;4.90;99.90;;;;;;5091977;28;20051;-74
2021/12/03 09:33:53;;;;;;;13.20;3.00;;;4.90;99.90;;;;;;5087307;28;20562;-75
2021/12/03 09:36:19;;;;;;;12.85;3.10;;;4.90;99.90;;;;;;5092219;28;20058;-74
2021/12/03 09:38:45;;;;;;;9.40;2.85;;;4.90;99.90;;;;;;5078630;28;20016;-74
2021/12/03 09:41:16;;;;;;;16.10;3.60;;;4.90;99.90;;;;;;5085293;28;20039;-75
2021/12/03 09:43:46;;;;;;;16.45;4.10;;;4.80;99.90;;;;;;5092029;28;20120;-74
2021/12/03 09:46:17;;;;;;;17.73;4.28;;;4.80;99.90;;;;;;5091987;28;20062;-74
2021/12/03 09:51:10;;;;;;;15.75;4.32;;;4.70;99.90;;;;;;5087496;28;20037;-74
2021/12/03 09:54:06;;;;;;;21.58;5.32;;;4.70;99.90;;;;;;5083869;28;20012;-74
2021/12/03 09:56:29;;;;;;;24.95;5.20;;;4.70;99.90;;;;;;5094690;28;20027;-74
2021/12/03 10:01:49;;;;;;;26.23;6.00;;;4.60;99.90;;;;;;5093956;28;20047;-75
2021/12/03 10:15:17;;;;;;;25.08;6.75;;;4.50;99.90;;;;;;5085793;28;20085;-74
2021/12/03 10:18:07;;;;;;;25.20;6.70;;;4.50;99.90;;;;;;5080660;28;20054;-74
2021/12/03 10:20:40;;;;;;;25.00;6.80;;;4.50;99.90;;;;;;5091085;28;20496;-74
2021/12/03 10:27:04;;;;;;;28.02;7.10;;;4.50;99.90;;;;;;5033234;28;20044;-74
2021/12/03 10:29:33;;;;;;;22.00;6.53;;;4.50;99.90;;;;;;5047953;28;20566;-75
2021/12/03 10:43:21;;;;;;;24.98;6.40;;;4.70;99.90;;;;;;5052071;28;20075;-73
2021/12/03 10:54:10;;;;;;;36.85;7.82;;;4.80;99.90;;;;;;5052546;28;20091;-74
2021/12/03 11:31:49;;;;;;;12.05;3.95;;;5.10;99.90;;;;;;5074495;28;20451;-75
2021/12/03 11:39:54;;;;;;;13.30;4.40;;;5.10;99.90;;;;;;5094934;28;20032;-74
2021/12/03 11:59:09;;;;;;;12.95;3.80;;;5.30;99.90;;;;;;5082003;28;20271;-74
2021/12/03 12:19:50;;;;;;;12.10;4.30;;;5.50;99.90;;;;;;5090303;28;20040;-74
2021/12/03 12:28:39;;;;;;;9.20;4.22;;;5.50;99.90;;;;;;5109751;28;20070;-74
2021/12/03 14:27:54;;;;;;;5.13;4.35;;;5.20;99.90;;;;;;5085705;27;20397;-78
2021/12/03 14:43:35;;;;;;;7.15;4.47;;;5.40;99.90;;;;;;5066139;28;20055;-76
2021/12/03 14:46:03;;;;;;;8.48;4.75;;;5.40;99.90;;;;;;5073057;27;20063;-76
2021/12/03 14:48:46;;;;;;;7.32;4.78;;;5.40;99.90;;;;;;5067841;27;20074;-77
2021/12/03 14:57:25;;;;;;;8.23;5.83;;;5.40;99.90;;;;;;5002422;28;20117;-76
2021/12/03 15:00:18;;;;;;;7.75;6.05;;;5.40;99.90;;;;;;5002393;28;20038;-75
2021/12/03 15:08:34;;;;;;;9.00;5.68;;;5.40;99.90;;;;;;5025375;28;21124;-74
2021/12/03 15:19:05;;;;;;;7.47;6.67;;;5.40;99.90;;;;;;5007678;28;20075;-75
2021/12/03 15:30:11;;;;;;;10.00;7.80;;;5.40;99.90;;;;;;5091433;27;20035;-73
2021/12/03 16:04:38;;;;;;;15.77;11.90;;;5.60;99.90;;;;;;5029040;28;20041;-73
2021/12/03 16:17:36;;;;;;;10.82;9.50;;;5.60;99.90;;;;;;5037647;27;20041;-74
2021/12/03 16:53:29;;;;;;;13.50;11.25;;;5.80;99.90;;;;;;5031555;27;20029;-74
2021/12/03 16:56:03;;;;;;;15.00;11.63;;;5.70;99.90;;;;;;5036768;28;20558;-74
2021/12/03 16:58:29;;;;;;;14.98;11.93;;;5.70;99.90;;;;;;5040254;28;20109;-74
2021/12/03 17:14:08;;;;;;;23.80;16.60;;;5.80;99.90;;;;;;5103303;28;20035;-74
2021/12/03 17:49:35;;;;;;;43.55;25.88;;;5.80;99.90;;;;;;5013111;28;20077;-74
2021/12/03 17:52:28;;;;;;;41.42;24.00;;;5.80;99.90;;;;;;4984951;28;20038;-74
2021/12/03 18:00:12;;;;;;;47.45;25.90;;;5.70;99.90;;;;;;4983924;28;20410;-74
2021/12/03 18:02:45;;;;;;;49.20;25.13;;;5.70;99.90;;;;;;4984214;28;20026;-74
2021/12/03 18:48:26;;;;;;;45.28;23.65;;;5.60;99.90;;;;;;5031000;28;20333;-74
2021/12/03 18:51:05;;;;;;;42.13;23.60;;;5.70;99.90;;;;;;5054090;27;20072;-73
2021/12/03 18:59:14;;;;;;;40.15;22.08;;;5.70;99.90;;;;;;5088435;28;20032;-73
2021/12/03 19:01:40;;;;;;;41.08;22.83;;;5.60;99.90;;;;;;5079008;28;20098;-73
2021/12/03 19:07:09;;;;;;;36.88;20.90;;;5.70;99.90;;;;;;5052559;28;20125;-73
2021/12/03 19:09:46;;;;;;;38.42;20.95;;;5.60;99.90;;;;;;5086214;28;20057;-74
2021/12/03 19:12:19;;;;;;;35.05;19.80;;;5.60;99.90;;;;;;5083863;28;20054;-75
2021/12/03 19:14:51;;;;;;;33.10;19.08;;;5.60;99.90;;;;;;5081342;28;20028;-74
2021/12/03 19:17:17;;;;;;;34.15;19.08;;;5.60;99.90;;;;;;5087225;28;20374;-74
2021/12/03 19:19:46;;;;;;;32.05;19.40;;;5.60;99.90;;;;;;5087381;28;20081;-74
2021/12/03 19:22:14;;;;;;;41.55;20.98;;;5.60;99.90;;;;;;5085607;28;20077;-74
2021/12/03 19:24:40;;;;;;;36.13;20.05;;;5.60;99.90;;;;;;5067931;28;20464;-74
2021/12/03 19:27:08;;;;;;;34.92;20.08;;;5.60;99.90;;;;;;5085047;28;20075;-74
2021/12/03 19:29:33;;;;;;;34.20;20.13;;;5.60;99.90;;;;;;5064666;28;20166;-73
2021/12/03 19:32:00;;;;;;;36.33;20.38;;;5.60;99.90;;;;;;5032577;28;20533;-75
2021/12/03 19:34:26;;;;;;;34.30;20.13;;;5.60;99.90;;;;;;5029411;28;20033;-74
2021/12/03 19:36:53;;;;;;;35.83;20.75;;;5.70;99.90;;;;;;5045931;27;20505;-74
2021/12/03 19:39:20;;;;;;;36.75;20.40;;;5.70;99.90;;;;;;5025629;28;20618;-74
2021/12/03 19:44:30;;;;;;;36.83;20.25;;;5.70;99.90;;;;;;5027965;27;20029;-75
2021/12/03 19:46:56;;;;;;;32.72;18.30;;;5.70;99.90;;;;;;5028795;28;20085;-73
2021/12/03 19:51:55;;;;;;;31.00;17.98;;;5.70;99.90;;;;;;5029814;28;20374;-74
2021/12/03 19:54:23;;;;;;;31.83;18.25;;;5.70;99.90;;;;;;5030178;28;20033;-74
2021/12/03 19:56:50;;;;;;;27.58;17.15;;;5.70;99.90;;;;;;5029886;28;20025;-74
2021/12/03 19:59:18;;;;;;;29.33;17.73;;;5.60;99.90;;;;;;5028422;28;20056;-75
2021/12/03 20:01:44;;;;;;;28.63;17.85;;;5.60;99.90;;;;;;5029451;28;20482;-74
2021/12/03 20:04:10;;;;;;;28.48;17.08;;;5.70;99.90;;;;;;5029582;28;20061;-74
2021/12/03 20:06:40;;;;;;;28.92;17.80;;;5.70;99.90;;;;;;5029655;28;20128;-75
2021/12/03 20:09:08;;;;;;;27.52;17.33;;;5.70;99.90;;;;;;5029641;28;20041;-75
2021/12/03 20:11:39;;;;;;;28.30;17.52;;;5.70;99.90;;;;;;5029543;28;20018;-75
2021/12/03 20:14:06;;;;;;;28.92;17.75;;;5.70;99.90;;;;;;5029354;27;20517;-75
2021/12/03 20:16:38;;;;;;;29.60;17.67;;;5.60;99.90;;;;;;5029193;28;20517;-74
2021/12/03 20:19:13;;;;;;;33.08;19.58;;;5.70;99.90;;;;;;5029569;28;20104;-75
2021/12/03 20:21:46;;;;;;;29.13;18.35;;;5.70;99.90;;;;;;5029501;28;20123;-75
2021/12/03 20:27:14;;;;;;;27.83;17.58;;;5.70;99.90;;;;;;5029212;28;20025;-75
2021/12/03 20:37:27;;;;;;;30.90;18.58;;;5.70;99.90;;;;;;5029523;28;20040;-75
2021/12/03 20:39:57;;;;;;;32.83;19.13;;;5.70;99.90;;;;;;5029321;28;20017;-74
2021/12/03 20:42:33;;;;;;;33.55;19.60;;;5.70;99.90;;;;;;5029261;28;20108;-74
2021/12/03 20:48:18;;;;;;;33.55;18.63;;;5.70;99.90;;;;;;5028691;28;20262;-74
2021/12/03 21:09:16;;;;;;;29.00;18.85;;;5.70;99.90;;;;;;5028796;28;20051;-74
2021/12/03 21:11:48;;;;;;;30.33;19.20;;;5.70;99.90;;;;;;5031413;28;20124;-74
2021/12/03 21:14:20;;;;;;;30.38;19.55;;;5.70;99.90;;;;;;5029862;28;20086;-75